Time;durP1;ratioP1;P1;durP2;ratioP2;P2;SDS_P1;SDS_P2;PMS_P1;PMS_P2;Temp;Humidity;BMP_temperature;BMP_pressure;BME280_temperature;BME280_humidity;BME280_pressure;Samples;Min_cycle;Max_cycle;Signal;HPM_P1;HPM_P2
2021/09/27 00:01:55;;;;;;;7.30;1.87;;;;;;;12.59;60.22;101095.91;1765186;80;21058;-59
2021/09/27 00:04:21;;;;;;;4.67;1.62;;;;;;;12.52;60.29;101100.00;1772076;80;21065;-59
2021/09/27 00:06:47;;;;;;;4.10;1.47;;;;;;;12.43;60.40;101098.42;1764610;80;21007;-59
2021/09/27 00:09:14;;;;;;;4.33;1.60;;;;;;;12.35;60.50;101093.38;1765365;80;22379;-59
2021/09/27 00:11:40;;;;;;;8.08;2.12;;;;;;;12.28;60.68;101103.55;1770718;80;21078;-59
2021/09/27 00:14:06;;;;;;;7.90;2.40;;;;;;;12.21;60.84;101103.17;1761622;79;23284;-60
2021/09/27 00:16:33;;;;;;;3.72;1.70;;;;;;;12.17;60.91;101109.66;1763024;80;21130;-59
2021/09/27 00:18:59;;;;;;;3.55;1.15;;;;;;;12.12;61.00;101112.25;1763886;80;21011;-59
2021/09/27 00:21:30;;;;;;;5.45;1.85;;;;;;;12.02;61.20;101108.14;1770679;80;21136;-59
2021/09/27 00:23:57;;;;;;;5.00;1.20;;;;;;;11.96;61.34;101117.36;1763206;80;21491;-59
2021/09/27 00:26:24;;;;;;;4.72;1.55;;;;;;;11.89;61.47;101122.21;1765310;79;21133;-59
2021/09/27 00:28:51;;;;;;;3.50;1.20;;;;;;;11.87;61.56;101128.08;1767468;80;21031;-59
2021/09/27 00:31:17;;;;;;;5.80;1.40;;;;;;;11.92;61.54;101129.10;1751063;80;21118;-59
2021/09/27 00:33:44;;;;;;;5.10;1.32;;;;;;;11.95;61.49;101125.37;1701483;83;21632;-59
2021/09/27 00:36:10;;;;;;;3.15;1.27;;;;;;;11.97;61.58;101121.69;1706447;83;21668;-59
2021/09/27 00:38:37;;;;;;;3.90;1.10;;;;;;;12.00;61.60;101123.24;1756476;80;21060;-60
2021/09/27 00:41:06;;;;;;;5.70;1.47;;;;;;;12.03;61.51;101126.48;1760227;80;21071;-59
2021/09/27 00:43:34;;;;;;;3.33;1.22;;;;;;;12.04;61.48;101125.55;1763857;80;21122;-59
2021/09/27 00:46:05;;;;;;;5.10;1.20;;;;;;;12.06;61.41;101117.03;1757135;80;21035;-59
2021/09/27 00:48:31;;;;;;;4.42;1.50;;;;;;;12.06;61.34;101126.27;1757815;80;21124;-59
2021/09/27 00:51:02;;;;;;;3.20;0.98;;;;;;;12.05;61.39;101119.33;1763868;80;21133;-59
2021/09/27 00:53:43;;;;;;;2.87;1.10;;;;;;;12.01;61.53;101131.05;1738720;80;20988;-59
2021/09/27 00:56:10;;;;;;;3.60;1.35;;;;;;;11.98;61.51;101132.58;1702621;82;21075;-59
2021/09/27 00:58:37;;;;;;;4.08;1.10;;;;;;;11.92;61.58;101133.52;1759851;79;21060;-59
2021/09/27 01:01:05;;;;;;;4.92;1.27;;;;;;;11.88;61.61;101132.87;1769633;80;21043;-60
2021/09/27 01:03:31;;;;;;;2.52;0.80;;;;;;;11.89;61.79;101130.61;1761684;80;22194;-59
2021/09/27 01:06:11;;;;;;;3.37;0.95;;;;;;;11.93;61.86;101132.08;1730651;82;21060;-59
2021/09/27 01:08:50;;;;;;;3.62;1.17;;;;;;;11.96;61.99;101133.18;1741200;80;21075;-60
2021/09/27 01:11:37;;;;;;;3.65;0.90;;;;;;;11.96;62.19;101136.30;1765305;80;21067;-59
2021/09/27 01:14:26;;;;;;;2.33;0.88;;;;;;;11.91;62.46;101135.32;1756972;79;21130;-60
2021/09/27 01:17:16;;;;;;;3.33;1.10;;;;;;;11.87;62.62;101145.70;1761603;80;21049;-59
2021/09/27 01:20:18;;;;;;;3.20;1.10;;;;;;;11.80;62.64;101140.05;1754357;80;21006;-59
2021/09/27 01:23:41;;;;;;;2.95;0.80;;;;;;;11.72;62.82;101138.44;1759461;80;21578;-59
2021/09/27 01:26:39;;;;;;;2.87;0.88;;;;;;;11.73;62.94;101138.78;1768697;80;21608;-59
2021/09/27 01:30:01;;;;;;;2.90;0.95;;;;;;;11.79;62.85;101144.11;1749081;80;21107;-60
2021/09/27 01:32:50;;;;;;;5.45;1.55;;;;;;;11.80;62.92;101144.45;1761181;80;21073;-59
2021/09/27 01:35:44;;;;;;;4.00;1.22;;;;;;;11.71;62.87;101145.48;1769546;80;21038;-60
2021/09/27 01:38:34;;;;;;;4.35;1.30;;;;;;;11.66;63.04;101149.42;1755684;80;21043;-59
2021/09/27 01:41:33;;;;;;;5.37;1.60;;;;;;;11.58;62.87;101155.23;1760442;80;21102;-59
2021/09/27 01:44:23;;;;;;;5.62;1.50;;;;;;;11.47;63.08;101158.65;1752431;80;20980;-59
2021/09/27 01:46:56;;;;;;;6.90;1.65;;;;;;;11.41;63.24;101158.25;1765579;80;21509;-59
2021/09/27 01:49:42;;;;;;;5.70;1.45;;;;;;;11.40;63.43;101157.87;1759664;79;21094;-60
2021/09/27 01:52:14;;;;;;;8.98;1.67;;;;;;;11.47;63.50;101158.65;1751248;80;21029;-59
2021/09/27 01:54:54;;;;;;;8.93;1.82;;;;;;;11.50;63.39;101167.66;1763183;80;21082;-59
2021/09/27 01:57:34;;;;;;;8.10;1.60;;;;;;;11.49;63.40;101164.65;1766255;80;21023;-59
2021/09/27 02:00:15;;;;;;;5.33;1.70;;;;;;;11.50;63.34;101166.83;1759488;80;21163;-59
2021/09/27 02:03:01;;;;;;;7.65;2.02;;;;;;;11.49;63.43;101171.72;1692101;84;21191;-59
2021/09/27 02:05:42;;;;;;;5.30;1.70;;;;;;;11.47;63.39;101180.22;1758014;80;20996;-60
2021/09/27 02:08:32;;;;;;;5.25;1.75;;;;;;;11.50;63.45;101177.38;1751733;80;22114;-60
2021/09/27 02:11:04;;;;;;;7.78;2.62;;;;;;;11.60;63.20;101174.89;1764659;80;21905;-59
2021/09/27 02:13:38;;;;;;;10.23;1.77;;;;;;;11.67;62.99;101173.04;1760041;80;22195;-59
2021/09/27 02:16:22;;;;;;;10.95;2.12;;;;;;;11.66;62.82;101175.30;1763062;80;21027;-59
2021/09/27 02:18:56;;;;;;;7.30;1.60;;;;;;;11.64;62.82;101176.37;1760260;80;21063;-60
2021/09/27 02:21:27;;;;;;;8.85;2.08;;;;;;;11.61;62.79;101177.42;1757170;80;21105;-59
2021/09/27 02:24:16;;;;;;;6.92;2.00;;;;;;;11.58;62.94;101186.86;1748801;80;20995;-59
2021/09/27 02:26:37;;;;;;;7.12;1.90;;;;;;;11.55;62.81;101187.56;1762850;80;21098;-59
2021/09/27 02:29:03;;;;;;;9.68;1.87;;;;;;;11.53;62.89;101189.85;1758048;80;21126;-60
2021/09/27 02:31:55;;;;;;;8.53;2.10;;;;;;;11.57;62.69;101186.52;1696354;82;21066;-59
2021/09/27 02:34:30;;;;;;;5.60;1.85;;;;;;;11.63;62.65;101187.86;1756767;80;21062;-59
2021/09/27 02:37:14;;;;;;;7.45;1.45;;;;;;;11.62;62.48;101188.83;1763606;80;21094;-58
2021/09/27 02:40:01;;;;;;;5.60;1.55;;;;;;;11.57;62.65;101193.11;1765642;80;21151;-59
2021/09/27 02:42:43;;;;;;;6.20;1.77;;;;;;;11.52;62.63;101192.59;1750143;80;21063;-59
2021/09/27 02:45:10;;;;;;;8.68;2.00;;;;;;;11.48;62.83;101194.61;1753821;80;21537;-60
2021/09/27 02:47:46;;;;;;;3.35;1.02;;;;;;;11.43;63.00;101198.05;1772196;79;21090;-59
2021/09/27 02:50:16;;;;;;;6.00;1.37;;;;;;;11.39;63.10;101192.61;1763318;80;21569;-59
2021/09/27 02:52:43;;;;;;;3.98;1.15;;;;;;;11.42;62.98;101192.88;1760115;80;21173;-59
2021/09/27 02:55:14;;;;;;;4.80;1.27;;;;;;;11.42;63.08;101198.98;1756802;80;21503;-59
2021/09/27 02:58:08;;;;;;;2.95;0.90;;;;;;;11.41;63.16;101193.82;1702970;82;21530;-60
2021/09/27 03:00:56;;;;;;;3.42;1.10;;;;;;;11.36;63.37;101199.41;1700989;84;21040;-59
2021/09/27 03:03:49;;;;;;;3.10;0.90;;;;;;;11.28;63.61;101201.28;1756588;80;21483;-59
2021/09/27 03:06:21;;;;;;;6.08;1.50;;;;;;;11.20;63.72;101197.50;1742745;80;21137;-59
2021/09/27 03:08:56;;;;;;;4.60;1.17;;;;;;;11.11;64.00;101198.50;1760714;80;21049;-57
2021/09/27 03:11:43;;;;;;;3.40;1.23;;;;;;;11.07;64.17;101197.02;1757236;80;21429;-59
2021/09/27 03:14:26;;;;;;;3.52;1.22;;;;;;;11.11;64.42;101191.05;1758954;80;21098;-59
2021/09/27 03:17:28;;;;;;;6.20;1.10;;;;;;;11.09;64.48;101196.43;1734582;80;21312;-58
2021/09/27 03:20:33;;;;;;;4.90;1.57;;;;;;;11.03;64.65;101199.51;1755485;80;21110;-58
2021/09/27 03:23:26;;;;;;;3.37;1.02;;;;;;;10.94;64.86;101200.98;1757302;80;21102;-58
2021/09/27 03:26:34;;;;;;;3.47;1.02;;;;;;;10.85;65.25;101201.60;1755498;80;21015;-57
2021/09/27 03:29:13;;;;;;;;;;;;;;;10.83;65.39;101200.88;1756303;80;21004;-58
2021/09/27 03:32:08;;;;;;;5.33;1.25;;;;;;;10.87;65.38;101206.28;1757997;80;20730;-58
2021/09/27 03:35:15;;;;;;;5.40;1.10;;;;;;;10.80;65.56;101206.34;1759025;80;21150;-58
2021/09/27 03:37:59;;;;;;;4.83;1.32;;;;;;;10.72;65.70;101202.89;1753882;80;21047;-57
2021/09/27 03:40:46;;;;;;;5.25;1.37;;;;;;;10.65;65.90;101205.58;1751907;80;21608;-57
2021/09/27 03:43:20;;;;;;;4.12;1.30;;;;;;;10.60;66.03;101207.20;1757090;80;21032;-57
2021/09/27 03:46:13;;;;;;;3.67;1.12;;;;;;;10.60;66.08;101212.94;1756443;80;21035;-57
2021/09/27 03:49:11;;;;;;;3.70;1.37;;;;;;;10.66;65.96;101213.00;1754516;80;23334;-56
2021/09/27 03:51:51;;;;;;;3.83;1.40;;;;;;;10.66;65.96;101216.94;1759216;80;21000;-57
2021/09/27 03:54:41;;;;;;;5.65;1.80;;;;;;;10.63;66.05;101224.59;1750245;80;21080;-56
2021/09/27 03:57:35;;;;;;;10.35;1.85;;;;;;;10.60;66.18;101229.57;1755112;80;21082;-56
2021/09/27 04:00:09;;;;;;;4.70;1.35;;;;;;;10.57;66.20;101228.48;1662776;85;21087;-57
2021/09/27 04:02:47;;;;;;;4.00;1.80;;;;;;;10.52;66.44;101227.08;1662356;83;21163;-57
2021/09/27 04:05:31;;;;;;;5.62;1.12;;;;;;;10.57;66.46;101227.62;1721657;80;21055;-57
2021/09/27 04:08:21;;;;;;;3.62;1.27;;;;;;;10.62;66.38;101231.27;1697711;84;21097;-57
2021/09/27 04:11:14;;;;;;;3.92;1.42;;;;;;;10.64;66.18;101221.02;1763058;80;21469;-59
2021/09/27 04:14:15;;;;;;;3.70;1.42;;;;;;;10.64;66.16;101215.76;1754476;80;21625;-57
2021/09/27 04:17:03;;;;;;;6.65;1.57;;;;;;;10.60;65.88;101225.62;1760031;80;21190;-57
2021/09/27 04:20:00;;;;;;;5.08;2.10;;;;;;;10.54;66.00;101231.31;1755219;80;21621;-58
2021/09/27 04:22:32;;;;;;;10.23;5.50;;;;;;;10.46;66.25;101228.34;1699024;83;21055;-57
2021/09/27 04:25:13;;;;;;;5.42;1.27;;;;;;;10.49;66.37;101236.49;1752623;80;21004;-57
2021/09/27 04:28:25;;;;;;;6.17;2.17;;;;;;;10.55;66.25;101234.30;1708460;80;21467;-57
2021/09/27 04:31:00;;;;;;;8.40;1.90;;;;;;;10.57;66.11;101240.78;1741702;80;21157;-57
2021/09/27 04:33:47;;;;;;;5.33;1.37;;;;;;;10.50;66.05;101242.13;1765087;80;21130;-57
2021/09/27 04:36:29;;;;;;;3.50;1.40;;;;;;;10.46;66.15;101241.50;1764492;80;21003;-58
2021/09/27 04:39:01;;;;;;;5.20;1.47;;;;;;;10.41;66.28;101240.96;1759352;80;22612;-58
2021/09/27 04:41:53;;;;;;;3.62;1.05;;;;;;;10.37;66.55;101237.69;1764687;80;21478;-57
2021/09/27 04:44:43;;;;;;;4.28;1.30;;;;;;;10.41;66.00;101239.64;1759629;80;21801;-65
2021/09/27 04:47:41;;;;;;;4.75;1.30;;;;;;;10.43;66.11;101240.86;1763855;80;21082;-64
2021/09/27 04:50:39;;;;;;;3.25;1.10;;;;;;;10.38;66.19;101234.09;1765288;80;21516;-63
2021/09/27 04:53:32;;;;;;;3.22;1.10;;;;;;;10.34;66.19;101230.44;1761562;80;21054;-64
2021/09/27 04:56:33;;;;;;;2.65;0.95;;;;;;;10.27;66.23;101231.31;1760484;80;21084;-61
2021/09/27 04:59:07;;;;;;;3.87;1.12;;;;;;;10.29;66.40;101228.55;1763266;80;21804;-62
2021/09/27 05:01:42;;;;;;;3.93;1.13;;;;;;;10.35;66.47;101225.09;1760738;80;21102;-64
2021/09/27 05:04:39;;;;;;;3.85;0.93;;;;;;;10.41;66.38;101227.80;1734973;80;21066;-62
2021/09/27 05:07:39;;;;;;;3.95;1.22;;;;;;;10.38;66.31;101230.63;1763259;80;21675;-61
2021/09/27 05:10:35;;;;;;;11.65;6.87;;;;;;;10.34;66.31;101230.44;1763236;80;21051;-62
2021/09/27 05:13:36;;;;;;;5.40;1.92;;;;;;;10.32;66.41;101228.39;1762298;80;21090;-64
2021/09/27 05:16:47;;;;;;;3.90;1.10;;;;;;;10.38;66.49;101232.78;1761535;79;21035;-57
2021/09/27 05:19:38;;;;;;;8.70;2.37;;;;;;;10.45;66.16;101227.96;1760080;79;21039;-56
2021/09/27 05:22:47;;;;;;;2.95;0.85;;;;;;;10.45;66.13;101231.91;1764276;80;21099;-57
2021/09/27 05:25:36;;;;;;;3.97;1.30;;;;;;;10.38;66.11;101231.95;1762278;80;22255;-57
2021/09/27 05:28:14;;;;;;;3.22;1.32;;;;;;;10.32;66.51;101245.49;1772268;80;21560;-57
2021/09/27 05:30:55;;;;;;;2.92;1.10;;;;;;;10.31;66.45;101240.68;1760794;80;21188;-57
2021/09/27 05:33:33;;;;;;;6.25;2.10;;;;;;;10.39;66.40;101258.16;1761588;80;21055;-56
2021/09/27 05:36:22;;;;;;;5.25;1.35;;;;;;;10.43;66.70;101258.80;1762977;80;21109;-56
2021/09/27 05:39:03;;;;;;;3.80;0.95;;;;;;;10.49;66.61;101253.59;1764851;80;21121;-58
2021/09/27 05:42:00;;;;;;;4.05;0.90;;;;;;;10.53;66.21;101250.66;1765607;80;21139;-59
2021/09/27 05:44:57;;;;;;;3.55;1.20;;;;;;;10.50;66.01;101252.18;1769352;79;21114;-59
2021/09/27 05:47:42;;;;;;;6.60;2.12;;;;;;;10.52;66.51;101254.27;1770776;80;21150;-57
2021/09/27 05:50:22;;;;;;;3.90;1.10;;;;;;;10.66;66.48;101256.42;1754243;80;21105;-58
2021/09/27 05:53:08;;;;;;;2.80;1.00;;;;;;;10.73;66.02;101252.46;1759594;80;21035;-58
2021/09/27 05:55:46;;;;;;;5.33;2.85;;;;;;;10.75;66.09;101249.25;1771308;79;21517;-58
2021/09/27 05:58:33;;;;;;;4.30;1.45;;;;;;;10.80;65.44;101248.46;1704101;83;21028;-58
2021/09/27 06:01:23;;;;;;;3.60;1.07;;;;;;;10.83;65.51;101240.36;1700497;83;21759;-58
2021/09/27 06:04:12;;;;;;;4.28;1.02;;;;;;;10.89;64.89;101249.17;1766889;79;21088;-66
2021/09/27 06:06:47;;;;;;;3.60;1.22;;;;;;;10.97;64.54;101246.84;1769693;80;21209;-60
2021/09/27 06:09:54;;;;;;;2.47;0.90;;;;;;;10.97;64.45;101249.47;1769877;80;21150;-58
2021/09/27 06:12:33;;;;;;;4.45;0.95;;;;;;;10.95;64.81;101247.42;1762770;80;21135;-60
2021/09/27 06:15:03;;;;;;;3.25;0.88;;;;;;;10.95;64.93;101247.42;1706454;82;21118;-58
2021/09/27 06:17:55;;;;;;;4.42;1.75;;;;;;;11.00;64.83;101247.12;1763761;80;20987;-65
2021/09/27 06:20:54;;;;;;;2.67;0.70;;;;;;;11.08;64.71;101247.92;1772033;80;21011;-65
2021/09/27 06:23:47;;;;;;;3.95;1.25;;;;;;;11.24;64.66;101255.12;1771419;80;21099;-61
2021/09/27 06:26:14;;;;;;;3.92;1.17;;;;;;;11.33;64.17;101250.55;1759983;79;20999;-65
2021/09/27 06:28:49;;;;;;;4.40;1.72;;;;;;;11.37;63.32;101249.85;1761320;79;21046;-62
2021/09/27 06:31:48;;;;;;;3.10;1.12;;;;;;;11.36;63.58;101244.20;1763710;80;21117;-70
2021/09/27 06:34:23;;;;;;;4.03;0.93;;;;;;;11.39;63.26;101248.43;1730555;80;21042;-72
2021/09/27 06:36:50;;;;;;;3.98;1.20;;;;;;;11.36;63.01;101248.16;1758502;80;21116;-70
2021/09/27 06:39:23;;;;;;;5.10;0.93;;;;;;;11.31;63.06;101245.86;1759630;80;21035;-69
2021/09/27 06:41:50;;;;;;;4.47;0.93;;;;;;;11.35;63.31;101249.12;1752138;80;21533;-70
2021/09/27 06:44:17;;;;;;;4.33;0.93;;;;;;;11.48;63.23;101249.09;1756667;80;21004;-70
2021/09/27 06:46:43;;;;;;;3.20;1.37;;;;;;;11.61;62.79;101249.91;1754851;80;21034;-69
2021/09/27 06:49:10;;;;;;;6.90;2.47;;;;;;;11.64;62.17;101242.28;1754372;80;21352;-70
2021/09/27 06:51:41;;;;;;;4.97;1.62;;;;;;;11.69;62.24;101247.58;1760231;80;21665;-68
2021/09/27 06:54:06;;;;;;;3.58;0.80;;;;;;;11.75;62.11;101248.09;1758968;80;21074;-71
2021/09/27 06:56:33;;;;;;;4.08;0.80;;;;;;;11.76;62.33;101251.94;1754626;80;21020;-70
2021/09/27 06:58:59;;;;;;;4.30;0.90;;;;;;;11.77;62.64;101252.77;1753665;80;21506;-70
2021/09/27 07:01:26;;;;;;;2.50;1.07;;;;;;;11.83;62.88;101251.03;1755178;80;21349;-70
2021/09/27 07:03:52;;;;;;;5.37;1.45;;;;;;;11.95;62.51;101254.61;1754321;80;21621;-70
2021/09/27 07:06:18;;;;;;;4.92;1.32;;;;;;;12.08;62.17;101252.77;1755687;80;21241;-70
2021/09/27 07:08:44;;;;;;;3.08;1.15;;;;;;;12.20;61.69;101252.36;1755965;80;21631;-69
2021/09/27 07:11:14;;;;;;;3.22;1.20;;;;;;;12.22;61.09;101253.95;1754810;80;21293;-69
2021/09/27 07:13:40;;;;;;;3.12;1.15;;;;;;;12.26;61.06;101255.88;1754787;80;21643;-69
2021/09/27 07:16:06;;;;;;;3.47;1.55;;;;;;;12.32;60.79;101247.98;1753681;80;21106;-69
2021/09/27 07:18:33;;;;;;;3.12;1.17;;;;;;;12.37;60.44;101246.70;1760340;80;21114;-69
2021/09/27 07:20:59;;;;;;;3.20;0.95;;;;;;;12.41;60.73;101248.14;1753368;80;21490;-69
2021/09/27 07:23:27;;;;;;;3.00;0.88;;;;;;;12.43;60.74;101246.23;1751587;80;21067;-70
2021/09/27 07:25:53;;;;;;;3.70;1.00;;;;;;;12.49;60.43;101242.77;1752454;80;22715;-70
2021/09/27 07:28:22;;;;;;;6.35;0.98;;;;;;;12.59;59.94;101247.72;1756423;80;21378;-71
2021/09/27 07:30:50;;;;;;;3.98;1.10;;;;;;;12.61;59.89;101247.15;1756318;80;21078;-73
2021/09/27 07:33:18;;;;;;;5.72;1.17;;;;;;;12.63;59.78;101252.66;1752399;80;21126;-68
2021/09/27 07:35:45;;;;;;;2.58;0.93;;;;;;;12.67;58.56;101251.13;1758825;80;21063;-66
2021/09/27 07:38:11;;;;;;;3.75;1.32;;;;;;;12.71;58.69;101250.78;1752391;80;21108;-70
2021/09/27 07:40:38;;;;;;;5.05;1.40;;;;;;;12.70;58.22;101251.73;1758425;80;21046;-69
2021/09/27 07:43:06;;;;;;;4.58;1.17;;;;;;;12.66;58.97;101252.92;1760761;80;21063;-69
2021/09/27 07:45:34;;;;;;;2.90;0.85;;;;;;;12.63;59.33;101254.47;1751220;80;21013;-70
2021/09/27 07:48:05;;;;;;;4.03;1.20;;;;;;;12.66;58.52;101250.28;1752936;80;21526;-65
2021/09/27 07:50:32;;;;;;;2.50;0.93;;;;;;;12.74;58.85;101252.33;1751695;80;21126;-61
2021/09/27 07:52:59;;;;;;;3.58;1.17;;;;;;;12.76;58.78;101255.23;1759599;80;21047;-69
2021/09/27 07:55:26;;;;;;;2.80;0.90;;;;;;;12.79;58.52;101252.83;1753478;79;21086;-72
2021/09/27 07:57:53;;;;;;;4.40;1.10;;;;;;;12.82;57.69;101250.79;1755278;80;21015;-70
2021/09/27 08:00:19;;;;;;;4.47;0.93;;;;;;;12.85;57.94;101258.14;1759690;80;21090;-71
2021/09/27 08:02:46;;;;;;;6.30;1.20;;;;;;;12.89;57.95;101252.98;1758198;80;21543;-71
2021/09/27 08:05:18;;;;;;;2.40;0.82;;;;;;;12.95;57.83;101251.20;1754214;80;21055;-73
2021/09/27 08:15:48;;;;;;;1.95;0.70;;;;;;;12.94;57.29;101246.38;1759558;80;21020;-71
2021/09/27 08:18:15;;;;;;;3.55;0.82;;;;;;;12.96;57.32;101244.94;1759183;79;21129;-66
2021/09/27 08:20:51;;;;;;;6.83;0.80;;;;;;;13.07;55.77;101252.06;1753771;80;21043;-71
2021/09/27 08:23:17;;;;;;;2.60;0.90;;;;;;;13.22;55.81;101244.75;1756164;80;21007;-73
2021/09/27 08:25:44;;;;;;;2.15;0.60;;;;;;;13.32;55.65;101248.39;1751961;80;21009;-71
2021/09/27 08:28:13;;;;;;;3.92;1.25;;;;;;;13.40;55.73;101252.61;1718124;81;21079;-73
2021/09/27 08:30:44;;;;;;;2.92;0.75;;;;;;;13.46;55.47;101256.56;1757807;80;21126;-72
2021/09/27 08:33:12;;;;;;;2.95;0.80;;;;;;;13.50;55.66;101253.56;1761214;79;21055;-68
2021/09/27 08:35:39;;;;;;;1.98;0.60;;;;;;;13.56;55.29;101260.16;1769806;80;21467;-69
2021/09/27 08:38:08;;;;;;;5.58;0.95;;;;;;;13.57;53.91;101263.18;1702798;82;21055;-73
2021/09/27 08:41:26;;;;;;;2.77;0.78;;;;;;;13.56;54.55;101257.03;1760624;80;21054;-73
2021/09/27 08:44:02;;;;;;;;;;;;;;;13.54;54.49;101261.60;1763542;80;21038;-71
2021/09/27 08:46:35;;;;;;;3.12;0.90;;;;;;;13.53;54.68;101265.23;1749943;80;20231;-70
2021/09/27 08:49:42;;;;;;;2.58;0.82;;;;;;;13.49;54.81;101268.22;1762751;80;21109;-72
2021/09/27 08:52:13;;;;;;;2.27;0.65;;;;;;;13.50;54.62;101264.14;1680285;83;21359;-74
2021/09/27 08:54:41;;;;;;;4.10;1.00;;;;;;;13.58;54.32;101262.20;1680366;83;21740;-70
2021/09/27 08:57:36;;;;;;;2.33;0.65;;;;;;;13.63;54.57;101251.27;1692052;80;21213;-69
2021/09/27 09:00:35;;;;;;;4.92;1.87;;;;;;;13.65;53.90;101246.23;1765351;79;21066;-71
2021/09/27 09:03:28;;;;;;;2.12;0.55;;;;;;;13.65;53.91;101255.94;1764995;80;21074;-67
2021/09/27 09:06:06;;;;;;;3.10;0.65;;;;;;;13.68;53.31;101255.70;1767141;80;21181;-71
2021/09/27 09:08:48;;;;;;;2.87;0.80;;;;;;;13.70;53.74;101259.06;1761540;80;21137;-69
2021/09/27 09:11:38;;;;;;;0.88;0.37;;;;;;;13.72;53.05;101257.99;1761046;80;21518;-70
2021/09/27 09:14:17;;;;;;;0.98;0.33;;;;;;;13.74;52.74;101261.84;1760782;80;21091;-69
2021/09/27 09:16:46;;;;;;;2.47;0.40;;;;;;;13.73;52.83;101254.86;1767763;79;21043;-70
2021/09/27 09:19:17;;;;;;;1.52;0.40;;;;;;;13.75;52.91;101255.11;1738915;80;21031;-69
2021/09/27 09:21:53;;;;;;;1.65;0.50;;;;;;;13.77;51.75;101256.31;1762681;79;21576;-71
2021/09/27 09:24:25;;;;;;;1.52;0.47;;;;;;;13.74;52.38;101252.59;1768435;80;21055;-71
2021/09/27 09:27:00;;;;;;;1.67;0.47;;;;;;;13.79;52.87;101242.47;1766557;80;21063;-70
2021/09/27 09:29:31;;;;;;;1.77;0.45;;;;;;;13.89;51.13;101252.67;1720375;80;21082;-69
2021/09/27 09:32:02;;;;;;;1.47;0.50;;;;;;;13.98;50.69;101244.97;1763852;80;21111;-72
2021/09/27 09:34:35;;;;;;;0.68;0.25;;;;;;;14.06;50.42;101246.52;1736695;80;21034;-73
2021/09/27 09:37:24;;;;;;;0.98;0.30;;;;;;;14.14;50.15;101240.11;1750755;80;21922;-73
2021/09/27 09:40:01;;;;;;;1.12;0.30;;;;;;;14.28;50.02;101250.89;1768276;80;21050;-71
2021/09/27 09:42:33;;;;;;;1.67;0.40;;;;;;;14.44;47.45;101239.86;1766156;80;21055;-70
2021/09/27 09:45:17;;;;;;;1.42;0.20;;;;;;;14.49;46.93;101251.77;1764005;80;21101;-70
2021/09/27 09:47:45;;;;;;;1.50;0.40;;;;;;;14.54;47.50;101247.89;1761952;80;21561;-69
2021/09/27 09:50:26;;;;;;;4.17;0.68;;;;;;;14.61;47.49;101243.33;1764101;80;21203;-71
2021/09/27 09:52:57;;;;;;;2.33;0.70;;;;;;;14.65;47.58;101245.23;1767447;80;21618;-69
2021/09/27 09:55:40;;;;;;;2.33;0.40;;;;;;;14.68;47.59;101241.83;1764598;80;21039;-71
2021/09/27 09:58:30;;;;;;;1.15;0.25;;;;;;;14.73;47.23;101250.73;1739392;80;21062;-72
2021/09/27 10:01:02;;;;;;;2.33;0.50;;;;;;;14.75;48.00;101247.95;1765710;80;21605;-72
2021/09/27 10:03:37;;;;;;;1.60;0.42;;;;;;;14.78;47.73;101247.70;1731618;80;21012;-70
2021/09/27 10:06:10;;;;;;;2.05;0.30;;;;;;;14.85;47.71;101246.20;1767209;80;21038;-68
2021/09/27 10:08:36;;;;;;;1.10;0.45;;;;;;;14.93;47.03;101242.42;1767848;80;21025;-72
2021/09/27 10:11:09;;;;;;;1.20;0.40;;;;;;;14.97;47.36;101241.67;1768408;80;21015;-70
2021/09/27 10:13:51;;;;;;;0.72;0.33;;;;;;;15.03;47.46;101240.67;1766621;80;21039;-72
2021/09/27 10:16:40;;;;;;;0.55;0.20;;;;;;;15.21;46.74;101249.33;1766093;80;21291;-72
2021/09/27 10:19:31;;;;;;;1.27;0.10;;;;;;;15.37;45.87;101240.91;1767819;80;21555;-70
2021/09/27 10:22:18;;;;;;;1.10;0.28;;;;;;;15.48;45.84;101242.11;1766999;79;21034;-71
2021/09/27 10:26:53;;;;;;;0.90;0.23;;;;;;;15.65;45.51;101243.78;1831824;76;23213;-65
2021/09/27 10:29:26;;;;;;;0.82;0.30;;;;;;;15.63;45.46;101245.73;1767912;79;21092;-64
2021/09/27 10:31:59;;;;;;;2.15;0.37;;;;;;;15.61;44.64;101246.70;1783237;78;21030;-65
2021/09/27 10:34:27;;;;;;;1.07;0.25;;;;;;;15.57;44.88;101243.15;1804581;77;21085;-64
2021/09/27 10:36:58;;;;;;;1.92;0.50;;;;;;;15.53;44.32;101248.35;1804280;77;21684;-63
2021/09/27 10:39:25;;;;;;;3.60;0.80;;;;;;;15.44;44.95;101246.52;1806009;77;20909;-64
2021/09/27 10:41:57;;;;;;;2.33;0.88;;;;;;;15.36;45.66;101245.84;1807440;77;21866;-63
2021/09/27 10:44:44;;;;;;;2.70;0.80;;;;;;;15.29;45.81;101246.03;1807227;77;21456;-63
2021/09/27 10:47:15;;;;;;;1.70;0.53;;;;;;;15.22;46.13;101247.05;1810180;77;21088;-63
2021/09/27 10:49:54;;;;;;;2.15;0.85;;;;;;;15.12;46.30;101246.16;1800212;77;21038;-64
2021/09/27 10:52:30;;;;;;;4.40;0.70;;;;;;;15.01;47.19;101252.36;1780377;79;21054;-64
2021/09/27 10:55:01;;;;;;;1.70;0.62;;;;;;;14.91;47.35;101251.00;1806722;77;21054;-63
2021/09/27 10:57:51;;;;;;;2.30;0.65;;;;;;;14.82;47.76;101249.94;1799730;77;21075;-65
2021/09/27 11:00:32;;;;;;;3.75;0.88;;;;;;;14.80;48.58;101249.73;1779803;77;21007;-63
2021/09/27 11:03:28;;;;;;;2.55;0.98;;;;;;;14.80;49.91;101250.56;1802433;77;21054;-65
2021/09/27 11:06:24;;;;;;;4.40;1.02;;;;;;;14.79;50.90;101246.71;1806260;77;21531;-64
2021/09/27 11:09:09;;;;;;;4.83;1.70;;;;;;;14.80;50.77;101257.67;1743321;80;21559;-64
2021/09/27 11:11:48;;;;;;;5.72;1.72;;;;;;;14.77;50.80;101253.95;1731976;80;21055;-64
2021/09/27 11:14:33;;;;;;;5.50;1.62;;;;;;;14.72;50.99;101254.83;1721215;79;21034;-64
2021/09/27 11:17:22;;;;;;;4.50;1.60;;;;;;;14.66;50.99;101250.89;1752948;79;21054;-65
2021/09/27 11:20:16;;;;;;;4.05;1.37;;;;;;;14.58;51.36;101249.34;1773743;79;20979;-64
2021/09/27 11:23:01;;;;;;;3.10;1.27;;;;;;;14.49;51.13;101253.10;1749906;80;21097;-63
2021/09/27 11:25:37;;;;;;;6.47;0.90;;;;;;;14.41;51.73;101254.70;1745674;80;21051;-64
2021/09/27 11:28:28;;;;;;;6.92;1.10;;;;;;;14.36;51.85;101256.89;1737492;80;21015;-65
2021/09/27 11:31:26;;;;;;;2.65;0.90;;;;;;;14.34;51.73;101257.48;1800552;78;21073;-65
2021/09/27 11:33:58;;;;;;;2.25;0.82;;;;;;;14.36;52.19;101257.72;1796160;78;21019;-64
2021/09/27 11:36:33;;;;;;;4.28;1.05;;;;;;;14.40;52.15;101253.02;1790986;78;21114;-64
2021/09/27 11:39:16;;;;;;;3.27;1.02;;;;;;;14.40;51.28;101251.20;1787298;78;21035;-64
2021/09/27 11:42:08;;;;;;;3.02;0.95;;;;;;;14.39;51.43;101255.29;1786558;78;21027;-66
2021/09/27 11:44:36;;;;;;;3.58;1.17;;;;;;;14.37;51.61;101253.27;1783720;78;20980;-65
2021/09/27 11:47:11;;;;;;;3.37;0.82;;;;;;;14.31;51.97;101259.91;1792872;78;21046;-66
2021/09/27 11:50:09;;;;;;;2.15;0.80;;;;;;;14.25;51.36;101250.64;1795909;77;21043;-62
2021/09/27 11:53:04;;;;;;;2.42;0.88;;;;;;;14.18;51.28;101253.94;1787823;77;21007;-65
2021/09/27 11:55:41;;;;;;;2.25;0.70;;;;;;;14.05;51.71;101248.30;1783837;77;21117;-64
2021/09/27 11:58:47;;;;;;;3.47;0.98;;;;;;;13.97;52.49;101257.82;1784172;78;21047;-63
2021/09/27 12:01:43;;;;;;;2.93;1.13;;;;;;;13.91;53.22;101253.87;1786340;78;21044;-61
2021/09/27 12:04:55;;;;;;;4.72;0.98;;;;;;;13.85;53.48;101259.19;1769849;78;21142;-65
2021/09/27 12:07:32;;;;;;;4.15;1.22;;;;;;;13.82;53.99;101258.56;1782498;78;21661;-65
2021/09/27 12:10:10;;;;;;;2.98;1.15;;;;;;;13.79;53.93;101259.67;1749661;79;21071;-61
2021/09/27 12:12:52;;;;;;;5.78;1.32;;;;;;;13.78;54.17;101260.63;1783418;79;21004;-62
2021/09/27 12:15:26;;;;;;;3.65;1.20;;;;;;;13.78;54.57;101264.59;1742277;81;21121;-62
2021/09/27 12:17:54;;;;;;;3.08;1.07;;;;;;;13.79;54.71;101263.64;1786903;78;21039;-64
2021/09/27 12:20:25;;;;;;;4.85;1.37;;;;;;;13.81;54.86;101263.03;1785150;78;21305;-64
2021/09/27 12:23:00;;;;;;;5.25;1.10;;;;;;;13.88;54.91;101264.70;1780650;78;21086;-65
2021/09/27 12:25:39;;;;;;;4.95;1.30;;;;;;;13.94;54.74;101255.79;1738551;80;21615;-65
2021/09/27 12:28:11;;;;;;;4.22;1.55;;;;;;;14.03;54.68;101252.05;1757289;80;21085;-64
2021/09/27 12:30:42;;;;;;;4.85;1.42;;;;;;;14.12;54.41;101248.64;1779614;78;21023;-64
2021/09/27 12:33:20;;;;;;;3.35;1.37;;;;;;;14.19;54.37;101249.84;1780816;78;22016;-65
2021/09/27 12:35:47;;;;;;;8.43;1.70;;;;;;;14.23;54.46;101255.23;1781300;78;21560;-61